sensor_id;sensor_type;location;lat;lon;timestamp;P1;durP1;ratioP1;P2;durP2;ratioP2
14394;SDS011;7282;49.204;10.652;2022-07-10T00:01:26;4.90;;;4.50;;
14394;SDS011;7282;49.204;10.652;2022-07-10T00:03:52;4.40;;;4.10;;
14394;SDS011;7282;49.204;10.652;2022-07-10T00:06:20;6.37;;;5.87;;
14394;SDS011;7282;49.204;10.652;2022-07-10T00:08:47;5.60;;;5.10;;
14394;SDS011;7282;49.204;10.652;2022-07-10T00:11:14;5.10;;;4.67;;
14394;SDS011;7282;49.204;10.652;2022-07-10T00:13:40;4.90;;;4.50;;
14394;SDS011;7282;49.204;10.652;2022-07-10T00:16:07;4.90;;;4.50;;
14394;SDS011;7282;49.204;10.652;2022-07-10T00:18:34;4.87;;;4.37;;
14394;SDS011;7282;49.204;10.652;2022-07-10T00:21:01;5.70;;;5.20;;
14394;SDS011;7282;49.204;10.652;2022-07-10T00:23:28;4.77;;;4.33;;
14394;SDS011;7282;49.204;10.652;2022-07-10T00:25:54;5.10;;;4.50;;
14394;SDS011;7282;49.204;10.652;2022-07-10T00:28:21;5.63;;;5.13;;
14394;SDS011;7282;49.204;10.652;2022-07-10T00:30:49;5.73;;;5.23;;
14394;SDS011;7282;49.204;10.652;2022-07-10T00:33:16;6.00;;;5.50;;
14394;SDS011;7282;49.204;10.652;2022-07-10T00:35:42;5.23;;;4.83;;
14394;SDS011;7282;49.204;10.652;2022-07-10T00:38:09;5.07;;;4.57;;
14394;SDS011;7282;49.204;10.652;2022-07-10T00:40:36;5.70;;;5.20;;
14394;SDS011;7282;49.204;10.652;2022-07-10T00:43:02;5.10;;;4.70;;
14394;SDS011;7282;49.204;10.652;2022-07-10T00:45:29;6.13;;;5.53;;
14394;SDS011;7282;49.204;10.652;2022-07-10T00:47:56;6.63;;;5.57;;
14394;SDS011;7282;49.204;10.652;2022-07-10T00:50:23;6.07;;;5.57;;
14394;SDS011;7282;49.204;10.652;2022-07-10T00:52:49;5.97;;;5.47;;
14394;SDS011;7282;49.204;10.652;2022-07-10T00:55:16;6.00;;;5.50;;
14394;SDS011;7282;49.204;10.652;2022-07-10T00:57:43;5.90;;;5.40;;
14394;SDS011;7282;49.204;10.652;2022-07-10T01:00:10;6.10;;;5.60;;
14394;SDS011;7282;49.204;10.652;2022-07-10T01:02:42;6.90;;;6.20;;
14394;SDS011;7282;49.204;10.652;2022-07-10T01:05:09;6.20;;;5.63;;
14394;SDS011;7282;49.204;10.652;2022-07-10T01:07:36;7.07;;;6.30;;
14394;SDS011;7282;49.204;10.652;2022-07-10T01:10:03;8.70;;;6.30;;
14394;SDS011;7282;49.204;10.652;2022-07-10T01:12:30;6.90;;;6.20;;
14394;SDS011;7282;49.204;10.652;2022-07-10T01:14:58;6.90;;;6.30;;
14394;SDS011;7282;49.204;10.652;2022-07-10T01:17:25;7.10;;;6.50;;
14394;SDS011;7282;49.204;10.652;2022-07-10T01:19:51;6.90;;;6.30;;
14394;SDS011;7282;49.204;10.652;2022-07-10T01:22:18;8.03;;;6.80;;
14394;SDS011;7282;49.204;10.652;2022-07-10T01:24:45;7.47;;;6.77;;
14394;SDS011;7282;49.204;10.652;2022-07-10T01:27:12;7.83;;;7.03;;
14394;SDS011;7282;49.204;10.652;2022-07-10T01:29:38;8.23;;;7.43;;
14394;SDS011;7282;49.204;10.652;2022-07-10T01:32:06;7.57;;;6.83;;
14394;SDS011;7282;49.204;10.652;2022-07-10T01:34:32;8.77;;;7.87;;
14394;SDS011;7282;49.204;10.652;2022-07-10T01:36:59;8.60;;;7.70;;
14394;SDS011;7282;49.204;10.652;2022-07-10T01:39:26;8.57;;;7.80;;
14394;SDS011;7282;49.204;10.652;2022-07-10T01:41:52;9.20;;;8.30;;
14394;SDS011;7282;49.204;10.652;2022-07-10T01:44:19;8.40;;;7.53;;
14394;SDS011;7282;49.204;10.652;2022-07-10T01:46:46;10.00;;;9.00;;
14394;SDS011;7282;49.204;10.652;2022-07-10T01:49:14;9.57;;;8.63;;
14394;SDS011;7282;49.204;10.652;2022-07-10T01:51:41;8.17;;;7.47;;
14394;SDS011;7282;49.204;10.652;2022-07-10T01:54:09;9.67;;;8.67;;
14394;SDS011;7282;49.204;10.652;2022-07-10T01:56:35;9.10;;;8.20;;
14394;SDS011;7282;49.204;10.652;2022-07-10T01:59:02;9.87;;;8.50;;
14394;SDS011;7282;49.204;10.652;2022-07-10T02:01:29;9.90;;;9.00;;
14394;SDS011;7282;49.204;10.652;2022-07-10T02:03:56;10.03;;;9.13;;
14394;SDS011;7282;49.204;10.652;2022-07-10T02:06:41;10.33;;;9.33;;
14394;SDS011;7282;49.204;10.652;2022-07-10T02:09:08;9.87;;;8.97;;
14394;SDS011;7282;49.204;10.652;2022-07-10T02:11:35;10.37;;;9.40;;
14394;SDS011;7282;49.204;10.652;2022-07-10T02:14:01;10.93;;;9.83;;
14394;SDS011;7282;49.204;10.652;2022-07-10T02:16:28;9.60;;;8.70;;
14394;SDS011;7282;49.204;10.652;2022-07-10T02:18:55;9.07;;;8.07;;
14394;SDS011;7282;49.204;10.652;2022-07-10T02:21:22;10.10;;;9.20;;
14394;SDS011;7282;49.204;10.652;2022-07-10T02:23:48;10.20;;;9.30;;
14394;SDS011;7282;49.204;10.652;2022-07-10T02:26:15;9.97;;;9.07;;
14394;SDS011;7282;49.204;10.652;2022-07-10T02:28:42;9.77;;;8.77;;
14394;SDS011;7282;49.204;10.652;2022-07-10T02:31:08;9.67;;;8.77;;
14394;SDS011;7282;49.204;10.652;2022-07-10T02:33:35;9.43;;;8.43;;
14394;SDS011;7282;49.204;10.652;2022-07-10T02:36:03;9.47;;;8.57;;
14394;SDS011;7282;49.204;10.652;2022-07-10T02:38:29;9.33;;;8.50;;
14394;SDS011;7282;49.204;10.652;2022-07-10T02:40:56;9.03;;;8.27;;
14394;SDS011;7282;49.204;10.652;2022-07-10T02:43:23;10.13;;;8.60;;
14394;SDS011;7282;49.204;10.652;2022-07-10T02:45:49;9.50;;;8.60;;
14394;SDS011;7282;49.204;10.652;2022-07-10T02:48:16;9.13;;;8.33;;
14394;SDS011;7282;49.204;10.652;2022-07-10T02:50:44;9.40;;;8.50;;
14394;SDS011;7282;49.204;10.652;2022-07-10T02:53:10;8.77;;;7.97;;
14394;SDS011;7282;49.204;10.652;2022-07-10T02:55:37;9.20;;;8.30;;
14394;SDS011;7282;49.204;10.652;2022-07-10T02:58:04;8.70;;;7.90;;
14394;SDS011;7282;49.204;10.652;2022-07-10T03:00:30;9.50;;;8.60;;
14394;SDS011;7282;49.204;10.652;2022-07-10T03:02:57;9.57;;;8.67;;
14394;SDS011;7282;49.204;10.652;2022-07-10T03:05:24;9.17;;;8.37;;
14394;SDS011;7282;49.204;10.652;2022-07-10T03:07:51;9.63;;;8.50;;
14394;SDS011;7282;49.204;10.652;2022-07-10T03:10:17;9.33;;;8.50;;
14394;SDS011;7282;49.204;10.652;2022-07-10T03:12:44;9.23;;;8.33;;
14394;SDS011;7282;49.204;10.652;2022-07-10T03:15:11;9.33;;;8.43;;
14394;SDS011;7282;49.204;10.652;2022-07-10T03:17:37;10.07;;;8.57;;
14394;SDS011;7282;49.204;10.652;2022-07-10T03:20:06;8.77;;;7.97;;
14394;SDS011;7282;49.204;10.652;2022-07-10T03:22:32;9.30;;;8.03;;
14394;SDS011;7282;49.204;10.652;2022-07-10T03:24:59;9.57;;;7.57;;
14394;SDS011;7282;49.204;10.652;2022-07-10T03:27:26;8.20;;;7.40;;
14394;SDS011;7282;49.204;10.652;2022-07-10T03:29:53;8.20;;;7.40;;
14394;SDS011;7282;49.204;10.652;2022-07-10T03:32:19;7.40;;;6.60;;
14394;SDS011;7282;49.204;10.652;2022-07-10T03:34:46;6.87;;;6.17;;
14394;SDS011;7282;49.204;10.652;2022-07-10T03:37:13;6.13;;;5.50;;
14394;SDS011;7282;49.204;10.652;2022-07-10T03:39:39;6.43;;;5.77;;
14394;SDS011;7282;49.204;10.652;2022-07-10T03:42:06;7.07;;;5.83;;
14394;SDS011;7282;49.204;10.652;2022-07-10T03:44:33;6.07;;;5.63;;
14394;SDS011;7282;49.204;10.652;2022-07-10T03:47:00;6.60;;;5.63;;
14394;SDS011;7282;49.204;10.652;2022-07-10T03:49:26;7.40;;;6.30;;
14394;SDS011;7282;49.204;10.652;2022-07-10T03:51:53;6.97;;;6.37;;
14394;SDS011;7282;49.204;10.652;2022-07-10T03:54:20;7.03;;;6.40;;
14394;SDS011;7282;49.204;10.652;2022-07-10T03:56:47;6.77;;;6.17;;
14394;SDS011;7282;49.204;10.652;2022-07-10T03:59:31;6.80;;;6.20;;
14394;SDS011;7282;49.204;10.652;2022-07-10T04:01:58;6.60;;;5.93;;
14394;SDS011;7282;49.204;10.652;2022-07-10T04:04:25;7.03;;;6.43;;
14394;SDS011;7282;49.204;10.652;2022-07-10T04:06:52;7.37;;;6.20;;
14394;SDS011;7282;49.204;10.652;2022-07-10T04:09:18;7.30;;;6.27;;
14394;SDS011;7282;49.204;10.652;2022-07-10T04:11:45;6.60;;;6.00;;
14394;SDS011;7282;49.204;10.652;2022-07-10T04:14:12;6.30;;;5.70;;
14394;SDS011;7282;49.204;10.652;2022-07-10T04:16:38;7.23;;;4.97;;
14394;SDS011;7282;49.204;10.652;2022-07-10T04:19:05;6.23;;;5.47;;
14394;SDS011;7282;49.204;10.652;2022-07-10T04:21:32;5.30;;;4.80;;
14394;SDS011;7282;49.204;10.652;2022-07-10T04:23:58;6.80;;;4.93;;
14394;SDS011;7282;49.204;10.652;2022-07-10T04:26:25;5.30;;;4.80;;
14394;SDS011;7282;49.204;10.652;2022-07-10T04:28:52;5.60;;;5.07;;
14394;SDS011;7282;49.204;10.652;2022-07-10T04:31:18;5.43;;;4.53;;
14394;SDS011;7282;49.204;10.652;2022-07-10T04:33:45;6.33;;;4.77;;
14394;SDS011;7282;49.204;10.652;2022-07-10T04:36:12;7.13;;;4.87;;
14394;SDS011;7282;49.204;10.652;2022-07-10T04:38:38;5.37;;;4.60;;
14394;SDS011;7282;49.204;10.652;2022-07-10T04:41:05;5.07;;;4.43;;
14394;SDS011;7282;49.204;10.652;2022-07-10T04:43:32;5.17;;;4.50;;
14394;SDS011;7282;49.204;10.652;2022-07-10T04:45:58;4.47;;;4.03;;
14394;SDS011;7282;49.204;10.652;2022-07-10T04:48:26;8.70;;;4.97;;
14394;SDS011;7282;49.204;10.652;2022-07-10T04:50:52;5.07;;;4.07;;
14394;SDS011;7282;49.204;10.652;2022-07-10T04:53:19;5.40;;;4.30;;
14394;SDS011;7282;49.204;10.652;2022-07-10T04:55:46;6.37;;;4.40;;
14394;SDS011;7282;49.204;10.652;2022-07-10T04:58:13;5.50;;;4.53;;
14394;SDS011;7282;49.204;10.652;2022-07-10T05:00:40;5.40;;;4.03;;
14394;SDS011;7282;49.204;10.652;2022-07-10T05:03:06;4.67;;;4.17;;
14394;SDS011;7282;49.204;10.652;2022-07-10T05:05:33;3.50;;;3.10;;
14394;SDS011;7282;49.204;10.652;2022-07-10T05:08:00;7.90;;;3.50;;
14394;SDS011;7282;49.204;10.652;2022-07-10T05:10:27;4.73;;;3.23;;
14394;SDS011;7282;49.204;10.652;2022-07-10T05:12:53;4.27;;;3.17;;
14394;SDS011;7282;49.204;10.652;2022-07-10T05:15:20;3.93;;;2.83;;
14394;SDS011;7282;49.204;10.652;2022-07-10T05:17:47;5.83;;;2.90;;
14394;SDS011;7282;49.204;10.652;2022-07-10T05:20:13;3.83;;;2.70;;
14394;SDS011;7282;49.204;10.652;2022-07-10T05:22:40;4.00;;;2.83;;
14394;SDS011;7282;49.204;10.652;2022-07-10T05:25:07;2.83;;;2.53;;
14394;SDS011;7282;49.204;10.652;2022-07-10T05:27:33;5.13;;;2.90;;
14394;SDS011;7282;49.204;10.652;2022-07-10T05:30:00;2.60;;;2.13;;
14394;SDS011;7282;49.204;10.652;2022-07-10T05:32:27;3.87;;;2.20;;
14394;SDS011;7282;49.204;10.652;2022-07-10T05:34:53;2.87;;;1.90;;
14394;SDS011;7282;49.204;10.652;2022-07-10T05:37:20;3.33;;;2.07;;
14394;SDS011;7282;49.204;10.652;2022-07-10T05:39:47;4.03;;;2.20;;
14394;SDS011;7282;49.204;10.652;2022-07-10T05:42:14;3.03;;;1.93;;
14394;SDS011;7282;49.204;10.652;2022-07-10T05:44:40;2.23;;;2.07;;
14394;SDS011;7282;49.204;10.652;2022-07-10T05:47:07;2.13;;;1.93;;
14394;SDS011;7282;49.204;10.652;2022-07-10T05:49:34;2.83;;;2.13;;
14394;SDS011;7282;49.204;10.652;2022-07-10T05:52:00;3.27;;;2.30;;
14394;SDS011;7282;49.204;10.652;2022-07-10T05:54:27;2.93;;;2.40;;
14394;SDS011;7282;49.204;10.652;2022-07-10T05:56:54;4.93;;;2.27;;
14394;SDS011;7282;49.204;10.652;2022-07-10T05:59:20;6.13;;;2.27;;
14394;SDS011;7282;49.204;10.652;2022-07-10T06:01:48;3.80;;;1.80;;
14394;SDS011;7282;49.204;10.652;2022-07-10T06:04:14;4.50;;;1.93;;
14394;SDS011;7282;49.204;10.652;2022-07-10T06:06:41;1.60;;;1.50;;
14394;SDS011;7282;49.204;10.652;2022-07-10T06:09:12;3.83;;;1.70;;
14394;SDS011;7282;49.204;10.652;2022-07-10T06:11:36;3.67;;;1.80;;
14394;SDS011;7282;49.204;10.652;2022-07-10T06:14:03;3.70;;;1.73;;
14394;SDS011;7282;49.204;10.652;2022-07-10T06:16:30;2.23;;;1.50;;
14394;SDS011;7282;49.204;10.652;2022-07-10T06:18:56;2.83;;;1.53;;
14394;SDS011;7282;49.204;10.652;2022-07-10T06:21:23;3.43;;;1.30;;
14394;SDS011;7282;49.204;10.652;2022-07-10T06:23:52;3.13;;;1.20;;
14394;SDS011;7282;49.204;10.652;2022-07-10T06:26:19;2.93;;;1.30;;
14394;SDS011;7282;49.204;10.652;2022-07-10T06:28:46;1.57;;;1.13;;
14394;SDS011;7282;49.204;10.652;2022-07-10T06:31:12;1.83;;;1.30;;
14394;SDS011;7282;49.204;10.652;2022-07-10T06:33:39;1.20;;;1.00;;
14394;SDS011;7282;49.204;10.652;2022-07-10T06:36:06;4.73;;;1.53;;
14394;SDS011;7282;49.204;10.652;2022-07-10T06:38:33;2.43;;;1.30;;
14394;SDS011;7282;49.204;10.652;2022-07-10T06:41:00;2.17;;;1.30;;
14394;SDS011;7282;49.204;10.652;2022-07-10T06:43:27;2.97;;;1.50;;
14394;SDS011;7282;49.204;10.652;2022-07-10T06:45:53;2.80;;;1.30;;
14394;SDS011;7282;49.204;10.652;2022-07-10T06:48:21;2.20;;;1.30;;
14394;SDS011;7282;49.204;10.652;2022-07-10T06:50:47;2.97;;;1.60;;
14394;SDS011;7282;49.204;10.652;2022-07-10T06:53:14;2.93;;;1.30;;
14394;SDS011;7282;49.204;10.652;2022-07-10T06:55:41;2.93;;;1.30;;
14394;SDS011;7282;49.204;10.652;2022-07-10T06:58:08;12.07;;;1.70;;
14394;SDS011;7282;49.204;10.652;2022-07-10T07:00:35;2.47;;;1.40;;
14394;SDS011;7282;49.204;10.652;2022-07-10T07:03:02;3.07;;;1.40;;
14394;SDS011;7282;49.204;10.652;2022-07-10T07:05:29;3.67;;;1.30;;
14394;SDS011;7282;49.204;10.652;2022-07-10T07:07:56;2.10;;;1.37;;
14394;SDS011;7282;49.204;10.652;2022-07-10T07:10:22;1.37;;;1.27;;
14394;SDS011;7282;49.204;10.652;2022-07-10T07:12:49;2.17;;;1.33;;
14394;SDS011;7282;49.204;10.652;2022-07-10T07:15:16;2.63;;;1.30;;
14394;SDS011;7282;49.204;10.652;2022-07-10T07:17:46;4.20;;;1.40;;
14394;SDS011;7282;49.204;10.652;2022-07-10T07:20:30;1.93;;;1.30;;
14394;SDS011;7282;49.204;10.652;2022-07-10T07:23:16;1.53;;;1.20;;
14394;SDS011;7282;49.204;10.652;2022-07-10T07:25:42;1.20;;;1.10;;
14394;SDS011;7282;49.204;10.652;2022-07-10T07:28:11;3.10;;;1.37;;
14394;SDS011;7282;49.204;10.652;2022-07-10T07:30:38;2.03;;;1.10;;
14394;SDS011;7282;49.204;10.652;2022-07-10T07:33:04;1.70;;;1.30;;
14394;SDS011;7282;49.204;10.652;2022-07-10T07:35:31;3.33;;;1.37;;
14394;SDS011;7282;49.204;10.652;2022-07-10T07:37:58;2.33;;;1.10;;
14394;SDS011;7282;49.204;10.652;2022-07-10T07:40:24;2.53;;;1.43;;
14394;SDS011;7282;49.204;10.652;2022-07-10T07:42:52;2.50;;;1.47;;
14394;SDS011;7282;49.204;10.652;2022-07-10T07:45:19;1.63;;;1.20;;
14394;SDS011;7282;49.204;10.652;2022-07-10T07:50:16;3.13;;;1.50;;
14394;SDS011;7282;49.204;10.652;2022-07-10T07:52:43;3.17;;;1.40;;
14394;SDS011;7282;49.204;10.652;2022-07-10T07:55:11;5.27;;;1.70;;
14394;SDS011;7282;49.204;10.652;2022-07-10T07:57:38;2.20;;;1.03;;
14394;SDS011;7282;49.204;10.652;2022-07-10T08:00:05;1.30;;;1.20;;
14394;SDS011;7282;49.204;10.652;2022-07-10T08:02:34;1.37;;;1.20;;
14394;SDS011;7282;49.204;10.652;2022-07-10T08:05:00;2.00;;;1.27;;
14394;SDS011;7282;49.204;10.652;2022-07-10T08:07:33;3.90;;;1.53;;
14394;SDS011;7282;49.204;10.652;2022-07-10T08:10:00;3.80;;;1.40;;
14394;SDS011;7282;49.204;10.652;2022-07-10T08:12:27;1.33;;;1.00;;
14394;SDS011;7282;49.204;10.652;2022-07-10T08:14:54;2.17;;;1.40;;
14394;SDS011;7282;49.204;10.652;2022-07-10T08:17:21;5.60;;;1.20;;
14394;SDS011;7282;49.204;10.652;2022-07-10T08:19:47;1.50;;;1.10;;
14394;SDS011;7282;49.204;10.652;2022-07-10T08:22:14;2.37;;;1.10;;
14394;SDS011;7282;49.204;10.652;2022-07-10T08:24:41;2.43;;;1.43;;
14394;SDS011;7282;49.204;10.652;2022-07-10T08:27:07;3.67;;;1.37;;
14394;SDS011;7282;49.204;10.652;2022-07-10T08:29:34;1.47;;;1.20;;
14394;SDS011;7282;49.204;10.652;2022-07-10T08:32:01;3.27;;;1.53;;
14394;SDS011;7282;49.204;10.652;2022-07-10T08:34:28;1.20;;;1.00;;
14394;SDS011;7282;49.204;10.652;2022-07-10T08:36:54;2.00;;;1.17;;
14394;SDS011;7282;49.204;10.652;2022-07-10T08:39:21;1.87;;;1.30;;
14394;SDS011;7282;49.204;10.652;2022-07-10T08:41:48;2.63;;;1.30;;
14394;SDS011;7282;49.204;10.652;2022-07-10T08:44:18;1.30;;;1.20;;
14394;SDS011;7282;49.204;10.652;2022-07-10T08:46:45;1.30;;;1.20;;
14394;SDS011;7282;49.204;10.652;2022-07-10T08:49:11;1.67;;;1.20;;
14394;SDS011;7282;49.204;10.652;2022-07-10T08:51:41;1.07;;;0.97;;
14394;SDS011;7282;49.204;10.652;2022-07-10T08:54:08;2.30;;;1.20;;
14394;SDS011;7282;49.204;10.652;2022-07-10T08:56:35;2.00;;;1.23;;
14394;SDS011;7282;49.204;10.652;2022-07-10T08:59:02;2.73;;;1.30;;
14394;SDS011;7282;49.204;10.652;2022-07-10T09:01:31;3.03;;;1.20;;
14394;SDS011;7282;49.204;10.652;2022-07-10T09:03:58;3.17;;;1.40;;
14394;SDS011;7282;49.204;10.652;2022-07-10T09:06:27;2.43;;;1.00;;
14394;SDS011;7282;49.204;10.652;2022-07-10T09:08:57;3.03;;;1.37;;
14394;SDS011;7282;49.204;10.652;2022-07-10T09:11:24;1.83;;;1.27;;
14394;SDS011;7282;49.204;10.652;2022-07-10T09:13:53;1.23;;;1.10;;
14394;SDS011;7282;49.204;10.652;2022-07-10T09:16:21;2.43;;;1.40;;
14394;SDS011;7282;49.204;10.652;2022-07-10T09:18:49;3.23;;;1.10;;
14394;SDS011;7282;49.204;10.652;2022-07-10T09:21:20;2.93;;;1.60;;
14394;SDS011;7282;49.204;10.652;2022-07-10T09:23:44;2.37;;;1.30;;
14394;SDS011;7282;49.204;10.652;2022-07-10T09:26:11;2.97;;;1.30;;
14394;SDS011;7282;49.204;10.652;2022-07-10T09:28:38;1.73;;;1.10;;
14394;SDS011;7282;49.204;10.652;2022-07-10T09:31:04;2.37;;;1.17;;
14394;SDS011;7282;49.204;10.652;2022-07-10T09:33:31;1.70;;;1.20;;
14394;SDS011;7282;49.204;10.652;2022-07-10T09:36:10;2.27;;;1.30;;
14394;SDS011;7282;49.204;10.652;2022-07-10T09:41:15;3.10;;;1.50;;
14394;SDS011;7282;49.204;10.652;2022-07-10T09:43:45;1.67;;;1.17;;
14394;SDS011;7282;49.204;10.652;2022-07-10T09:46:13;4.23;;;1.40;;
14394;SDS011;7282;49.204;10.652;2022-07-10T09:48:40;1.73;;;1.40;;
14394;SDS011;7282;49.204;10.652;2022-07-10T09:51:08;2.40;;;1.30;;
14394;SDS011;7282;49.204;10.652;2022-07-10T09:53:38;2.27;;;1.60;;
14394;SDS011;7282;49.204;10.652;2022-07-10T09:56:10;1.83;;;1.10;;
14394;SDS011;7282;49.204;10.652;2022-07-10T09:58:37;1.00;;;0.90;;
14394;SDS011;7282;49.204;10.652;2022-07-10T10:01:05;3.47;;;1.20;;
14394;SDS011;7282;49.204;10.652;2022-07-10T10:03:35;2.20;;;1.00;;
14394;SDS011;7282;49.204;10.652;2022-07-10T10:06:03;2.30;;;1.30;;
14394;SDS011;7282;49.204;10.652;2022-07-10T10:08:37;2.70;;;1.23;;
14394;SDS011;7282;49.204;10.652;2022-07-10T10:11:01;2.57;;;1.60;;
14394;SDS011;7282;49.204;10.652;2022-07-10T10:13:29;2.50;;;1.00;;
14394;SDS011;7282;49.204;10.652;2022-07-10T10:15:59;10.07;;;1.30;;
14394;SDS011;7282;49.204;10.652;2022-07-10T10:18:27;1.87;;;1.07;;
14394;SDS011;7282;49.204;10.652;2022-07-10T10:20:55;1.70;;;1.30;;
14394;SDS011;7282;49.204;10.652;2022-07-10T10:23:23;2.27;;;1.20;;
14394;SDS011;7282;49.204;10.652;2022-07-10T10:25:56;2.00;;;1.30;;
14394;SDS011;7282;49.204;10.652;2022-07-10T10:28:21;3.10;;;1.33;;
14394;SDS011;7282;49.204;10.652;2022-07-10T10:30:50;2.07;;;1.17;;
14394;SDS011;7282;49.204;10.652;2022-07-10T10:36:03;1.37;;;0.80;;
14394;SDS011;7282;49.204;10.652;2022-07-10T10:38:57;1.10;;;1.00;;
14394;SDS011;7282;49.204;10.652;2022-07-10T10:44:16;2.27;;;1.00;;
14394;SDS011;7282;49.204;10.652;2022-07-10T10:46:25;2.00;;;1.00;;
14394;SDS011;7282;49.204;10.652;2022-07-10T10:49:07;1.77;;;1.27;;
14394;SDS011;7282;49.204;10.652;2022-07-10T10:54:19;1.63;;;1.00;;
14394;SDS011;7282;49.204;10.652;2022-07-10T10:56:45;6.23;;;1.43;;
14394;SDS011;7282;49.204;10.652;2022-07-10T10:59:43;1.60;;;1.00;;
14394;SDS011;7282;49.204;10.652;2022-07-10T11:01:43;2.13;;;1.03;;
14394;SDS011;7282;49.204;10.652;2022-07-10T11:06:43;1.10;;;1.00;;
14394;SDS011;7282;49.204;10.652;2022-07-10T11:11:57;0.90;;;0.90;;
14394;SDS011;7282;49.204;10.652;2022-07-10T11:14:24;2.20;;;1.13;;
14394;SDS011;7282;49.204;10.652;2022-07-10T11:16:54;2.80;;;0.90;;
14394;SDS011;7282;49.204;10.652;2022-07-10T11:19:22;2.20;;;1.00;;
14394;SDS011;7282;49.204;10.652;2022-07-10T11:21:58;2.90;;;1.13;;
14394;SDS011;7282;49.204;10.652;2022-07-10T11:24:28;1.97;;;1.03;;
14394;SDS011;7282;49.204;10.652;2022-07-10T11:26:54;1.10;;;0.80;;
14394;SDS011;7282;49.204;10.652;2022-07-10T11:29:18;1.70;;;0.80;;
14394;SDS011;7282;49.204;10.652;2022-07-10T11:31:52;0.83;;;0.80;;
14394;SDS011;7282;49.204;10.652;2022-07-10T11:34:13;1.23;;;0.80;;
14394;SDS011;7282;49.204;10.652;2022-07-10T11:36:40;1.73;;;1.10;;
14394;SDS011;7282;49.204;10.652;2022-07-10T11:39:07;1.40;;;0.70;;
14394;SDS011;7282;49.204;10.652;2022-07-10T11:41:41;2.50;;;0.90;;
14394;SDS011;7282;49.204;10.652;2022-07-10T11:44:03;3.23;;;0.97;;
14394;SDS011;7282;49.204;10.652;2022-07-10T11:46:31;2.50;;;1.10;;
14394;SDS011;7282;49.204;10.652;2022-07-10T11:48:57;2.37;;;1.00;;
14394;SDS011;7282;49.204;10.652;2022-07-10T11:54:02;2.40;;;1.10;;
14394;SDS011;7282;49.204;10.652;2022-07-10T11:56:30;2.03;;;1.00;;
14394;SDS011;7282;49.204;10.652;2022-07-10T11:59:00;1.27;;;0.87;;
14394;SDS011;7282;49.204;10.652;2022-07-10T12:01:28;2.10;;;1.20;;
14394;SDS011;7282;49.204;10.652;2022-07-10T12:04:03;3.27;;;1.23;;
14394;SDS011;7282;49.204;10.652;2022-07-10T12:06:26;2.33;;;1.10;;
14394;SDS011;7282;49.204;10.652;2022-07-10T12:08:56;0.83;;;0.80;;
14394;SDS011;7282;49.204;10.652;2022-07-10T12:11:22;2.47;;;1.10;;
14394;SDS011;7282;49.204;10.652;2022-07-10T12:13:50;0.80;;;0.80;;
14394;SDS011;7282;49.204;10.652;2022-07-10T12:16:18;1.20;;;1.10;;
14394;SDS011;7282;49.204;10.652;2022-07-10T12:18:45;1.53;;;0.97;;
14394;SDS011;7282;49.204;10.652;2022-07-10T12:21:12;1.80;;;1.00;;
14394;SDS011;7282;49.204;10.652;2022-07-10T12:23:39;1.43;;;1.03;;
14394;SDS011;7282;49.204;10.652;2022-07-10T12:26:11;1.90;;;0.93;;
14394;SDS011;7282;49.204;10.652;2022-07-10T12:28:55;1.10;;;0.80;;
14394;SDS011;7282;49.204;10.652;2022-07-10T12:31:27;0.80;;;0.80;;
14394;SDS011;7282;49.204;10.652;2022-07-10T12:33:58;2.03;;;0.80;;
14394;SDS011;7282;49.204;10.652;2022-07-10T12:36:40;3.17;;;1.00;;
14394;SDS011;7282;49.204;10.652;2022-07-10T12:38:56;0.93;;;0.80;;
14394;SDS011;7282;49.204;10.652;2022-07-10T12:41:24;1.80;;;0.90;;
14394;SDS011;7282;49.204;10.652;2022-07-10T12:43:51;0.70;;;0.70;;
14394;SDS011;7282;49.204;10.652;2022-07-10T12:46:23;1.80;;;1.00;;
14394;SDS011;7282;49.204;10.652;2022-07-10T12:49:03;1.57;;;0.80;;
14394;SDS011;7282;49.204;10.652;2022-07-10T12:51:32;1.83;;;1.03;;
14394;SDS011;7282;49.204;10.652;2022-07-10T12:53:59;1.83;;;0.90;;
14394;SDS011;7282;49.204;10.652;2022-07-10T12:56:26;1.90;;;0.90;;
14394;SDS011;7282;49.204;10.652;2022-07-10T12:58:53;4.07;;;0.87;;
14394;SDS011;7282;49.204;10.652;2022-07-10T13:01:20;2.27;;;1.10;;
14394;SDS011;7282;49.204;10.652;2022-07-10T13:03:47;0.73;;;0.73;;
14394;SDS011;7282;49.204;10.652;2022-07-10T13:06:31;1.07;;;0.90;;
14394;SDS011;7282;49.204;10.652;2022-07-10T13:08:54;0.70;;;0.70;;
14394;SDS011;7282;49.204;10.652;2022-07-10T13:11:21;1.07;;;0.80;;
14394;SDS011;7282;49.204;10.652;2022-07-10T13:13:48;0.87;;;0.60;;
14394;SDS011;7282;49.204;10.652;2022-07-10T13:16:15;1.00;;;0.80;;
14394;SDS011;7282;49.204;10.652;2022-07-10T13:18:42;1.10;;;0.87;;
14394;SDS011;7282;49.204;10.652;2022-07-10T13:21:11;1.13;;;0.90;;
14394;SDS011;7282;49.204;10.652;2022-07-10T13:23:38;0.87;;;0.80;;
14394;SDS011;7282;49.204;10.652;2022-07-10T13:26:05;0.63;;;0.60;;
14394;SDS011;7282;49.204;10.652;2022-07-10T13:28:34;1.93;;;0.77;;
14394;SDS011;7282;49.204;10.652;2022-07-10T13:31:00;1.60;;;0.90;;
14394;SDS011;7282;49.204;10.652;2022-07-10T13:33:28;1.30;;;0.63;;
14394;SDS011;7282;49.204;10.652;2022-07-10T13:35:55;2.63;;;0.73;;
14394;SDS011;7282;49.204;10.652;2022-07-10T13:38:21;3.07;;;1.17;;
14394;SDS011;7282;49.204;10.652;2022-07-10T13:40:50;1.27;;;0.97;;
14394;SDS011;7282;49.204;10.652;2022-07-10T13:43:17;1.90;;;0.63;;
14394;SDS011;7282;49.204;10.652;2022-07-10T13:45:45;1.93;;;0.80;;
14394;SDS011;7282;49.204;10.652;2022-07-10T13:48:13;1.47;;;0.80;;
14394;SDS011;7282;49.204;10.652;2022-07-10T13:50:40;2.47;;;1.10;;
14394;SDS011;7282;49.204;10.652;2022-07-10T13:53:07;1.53;;;0.90;;
14394;SDS011;7282;49.204;10.652;2022-07-10T13:55:35;1.43;;;0.83;;
14394;SDS011;7282;49.204;10.652;2022-07-10T13:58:02;1.77;;;1.00;;
14394;SDS011;7282;49.204;10.652;2022-07-10T14:00:29;0.70;;;0.70;;
14394;SDS011;7282;49.204;10.652;2022-07-10T14:02:56;2.37;;;0.90;;
14394;SDS011;7282;49.204;10.652;2022-07-10T14:05:23;0.70;;;0.70;;
14394;SDS011;7282;49.204;10.652;2022-07-10T14:07:50;0.80;;;0.80;;
14394;SDS011;7282;49.204;10.652;2022-07-10T14:10:17;2.23;;;1.17;;
14394;SDS011;7282;49.204;10.652;2022-07-10T14:12:43;0.97;;;0.93;;
14394;SDS011;7282;49.204;10.652;2022-07-10T14:15:10;1.13;;;0.90;;
14394;SDS011;7282;49.204;10.652;2022-07-10T14:17:37;1.47;;;0.70;;
14394;SDS011;7282;49.204;10.652;2022-07-10T14:20:04;2.47;;;0.80;;
14394;SDS011;7282;49.204;10.652;2022-07-10T14:22:30;1.17;;;0.83;;
14394;SDS011;7282;49.204;10.652;2022-07-10T14:24:57;0.63;;;0.63;;
14394;SDS011;7282;49.204;10.652;2022-07-10T14:27:26;1.27;;;0.90;;
14394;SDS011;7282;49.204;10.652;2022-07-10T14:29:55;0.70;;;0.60;;
14394;SDS011;7282;49.204;10.652;2022-07-10T14:32:21;1.03;;;0.70;;
14394;SDS011;7282;49.204;10.652;2022-07-10T14:34:48;1.63;;;0.87;;
14394;SDS011;7282;49.204;10.652;2022-07-10T14:37:15;0.97;;;0.70;;
14394;SDS011;7282;49.204;10.652;2022-07-10T14:39:42;1.23;;;0.80;;
14394;SDS011;7282;49.204;10.652;2022-07-10T14:42:08;2.90;;;0.83;;
14394;SDS011;7282;49.204;10.652;2022-07-10T14:44:38;1.00;;;0.70;;
14394;SDS011;7282;49.204;10.652;2022-07-10T14:47:05;2.93;;;0.83;;
14394;SDS011;7282;49.204;10.652;2022-07-10T14:49:31;0.77;;;0.77;;
14394;SDS011;7282;49.204;10.652;2022-07-10T14:51:58;1.63;;;0.90;;
14394;SDS011;7282;49.204;10.652;2022-07-10T14:54:25;1.97;;;0.90;;
14394;SDS011;7282;49.204;10.652;2022-07-10T14:56:52;1.07;;;0.77;;
14394;SDS011;7282;49.204;10.652;2022-07-10T14:59:19;3.37;;;1.10;;
14394;SDS011;7282;49.204;10.652;2022-07-10T15:01:45;1.30;;;0.73;;
14394;SDS011;7282;49.204;10.652;2022-07-10T15:04:12;1.57;;;0.80;;
14394;SDS011;7282;49.204;10.652;2022-07-10T15:06:39;1.60;;;0.87;;
14394;SDS011;7282;49.204;10.652;2022-07-10T15:09:06;0.93;;;0.63;;
14394;SDS011;7282;49.204;10.652;2022-07-10T15:11:32;1.43;;;0.87;;